Kezdőlap
METAR-TAF:

METAR-TAF

Repülőterek :

Lahr, Németország

földrajzi szélesség: 48-22-09N, földrajzi hosszúság: 007-49-40E, magasság: 156 m

Jelenlegi meteorológiai megfigyelések

A jelentés 7 órával és 54 perccel ezelõtt készült, 18:50 UTC
Nyugati szél 18 kt
Hőmérséklet 5°C
Páratartalom 70%
Légköri nyomás 1002 hPa
Látótávolság 10 km, vagy több
Borult 3300 lábon

METAR: EDTL 271850Z 27018KT 9999 OVC033 05/M00 Q1002

Idő: 03:44 (02:44 UTC)

Előrejelzés

A jelentés 8 órával és 34 perccel ezelõtt készült, 18:10 UTC
Az előrejelzés 27-én 19 óra UTC és 27-én 24 óra UTC között érvényes
Nyugati szél 20 kt széllökések: 35 kt
Látótávolság 10 km, vagy több
Szakadozott felhőzet 3000 lábon
27-én 19 óra UTC és 27-én 21 óra UTC között fokozatosan kialakuló
Nyugati szél 12 kt

TAF: EDTL 271810Z 2719/2724 27020G35KT 9999 BKN030 BECMG 2719/2721 27012KT

Meteorológiai megfigyelések és előrejelzések több, mint 4000 repülőtéren (METAR és TAF jelentéseket).

A térképen piros és sárga pontok jelzik az elérhető meteorológiai állomásokat.

Mozgassa az egeret a pont fölött, hogy megjelenjen az állomás neve.

Azután kattintson az időjárási megfigyelések és előrejelzések megtekintéséhez.

A térkép megváltoztatása: kattintson a fekete keresztel jelölt zöld gombra ráközelítéshez, a vonallal jelölt zöld gombra távolításhoz, vagy a zöld nyilakra a szomszédos térképek eléréséhez.


METAR-TAF: